sensor_id;sensor_type;location;lat;lon;timestamp;pressure;altitude;pressure_sealevel;temperature
64904;BMP280;51401;48.882;12.598;2023-04-25T00:02:23;91366.91;;;8.63
64904;BMP280;51401;48.882;12.598;2023-04-25T00:04:48;91381.81;;;8.57
64904;BMP280;51401;48.882;12.598;2023-04-25T00:07:14;91298.31;;;8.60
64904;BMP280;51401;48.882;12.598;2023-04-25T00:09:39;91267.75;;;8.64
64904;BMP280;51401;48.882;12.598;2023-04-25T00:12:05;91250.34;;;8.57
64904;BMP280;51401;48.882;12.598;2023-04-25T00:14:30;91187.28;;;8.51
64904;BMP280;51401;48.882;12.598;2023-04-25T00:16:58;91014.75;;;8.45
64904;BMP280;51401;48.882;12.598;2023-04-25T00:19:24;90947.91;;;8.62
64904;BMP280;51401;48.882;12.598;2023-04-25T00:21:49;91028.16;;;8.51
64904;BMP280;51401;48.882;12.598;2023-04-25T00:24:15;91064.94;;;8.59
64904;BMP280;51401;48.882;12.598;2023-04-25T00:26:40;91068.03;;;8.50
64904;BMP280;51401;48.882;12.598;2023-04-25T00:29:05;91023.19;;;8.46
64904;BMP280;51401;48.882;12.598;2023-04-25T00:31:30;90959.09;;;8.42
64904;BMP280;51401;48.882;12.598;2023-04-25T00:33:56;90865.13;;;8.43
64904;BMP280;51401;48.882;12.598;2023-04-25T00:36:21;90825.59;;;8.48
64904;BMP280;51401;48.882;12.598;2023-04-25T00:38:47;90710.13;;;8.54
64904;BMP280;51401;48.882;12.598;2023-04-25T00:41:13;90648.44;;;8.56
64904;BMP280;51401;48.882;12.598;2023-04-25T00:43:39;90610.59;;;8.59
64904;BMP280;51401;48.882;12.598;2023-04-25T00:46:05;90563.84;;;8.62
64904;BMP280;51401;48.882;12.598;2023-04-25T00:48:30;90537.13;;;8.50
64904;BMP280;51401;48.882;12.598;2023-04-25T00:50:58;90459.47;;;8.30
64904;BMP280;51401;48.882;12.598;2023-04-25T00:53:26;90321.00;;;8.21
64904;BMP280;51401;48.882;12.598;2023-04-25T00:55:52;90228.91;;;8.12
64904;BMP280;51401;48.882;12.598;2023-04-25T00:58:18;90104.88;;;8.06
64904;BMP280;51401;48.882;12.598;2023-04-25T01:00:45;89935.19;;;8.01
64904;BMP280;51401;48.882;12.598;2023-04-25T01:03:11;89841.69;;;7.98
64904;BMP280;51401;48.882;12.598;2023-04-25T01:05:36;89714.22;;;7.88
64904;BMP280;51401;48.882;12.598;2023-04-25T01:08:02;89570.53;;;7.84
64904;BMP280;51401;48.882;12.598;2023-04-25T01:10:27;89416.16;;;7.84
64904;BMP280;51401;48.882;12.598;2023-04-25T01:12:52;89270.03;;;7.83
64904;BMP280;51401;48.882;12.598;2023-04-25T01:15:18;89198.31;;;7.78
64904;BMP280;51401;48.882;12.598;2023-04-25T01:17:43;89138.22;;;7.73
64904;BMP280;51401;48.882;12.598;2023-04-25T01:20:11;89050.97;;;7.77
64904;BMP280;51401;48.882;12.598;2023-04-25T01:22:36;88894.28;;;7.81
64904;BMP280;51401;48.882;12.598;2023-04-25T01:25:02;88701.47;;;7.83
64904;BMP280;51401;48.882;12.598;2023-04-25T01:27:27;88625.06;;;7.85
64904;BMP280;51401;48.882;12.598;2023-04-25T01:29:54;88591.44;;;7.81
64904;BMP280;51401;48.882;12.598;2023-04-25T01:32:20;88657.72;;;7.83
64904;BMP280;51401;48.882;12.598;2023-04-25T01:34:46;88621.81;;;7.85
64904;BMP280;51401;48.882;12.598;2023-04-25T01:37:12;88612.78;;;7.84
64904;BMP280;51401;48.882;12.598;2023-04-25T01:39:37;88599.34;;;7.85
64904;BMP280;51401;48.882;12.598;2023-04-25T01:42:02;88592.56;;;7.78
64904;BMP280;51401;48.882;12.598;2023-04-25T01:44:27;88536.66;;;7.66
64904;BMP280;51401;48.882;12.598;2023-04-25T01:46:53;88448.34;;;7.61
64904;BMP280;51401;48.882;12.598;2023-04-25T01:49:19;88334.53;;;7.61
64904;BMP280;51401;48.882;12.598;2023-04-25T01:51:44;88257.97;;;7.59
64904;BMP280;51401;48.882;12.598;2023-04-25T01:54:10;88202.84;;;7.62
64904;BMP280;51401;48.882;12.598;2023-04-25T01:56:37;88189.50;;;7.66
64904;BMP280;51401;48.882;12.598;2023-04-25T01:59:04;88192.16;;;7.68
64904;BMP280;51401;48.882;12.598;2023-04-25T02:01:29;88127.88;;;7.68
64904;BMP280;51401;48.882;12.598;2023-04-25T02:03:55;88108.59;;;7.69
64904;BMP280;51401;48.882;12.598;2023-04-25T02:06:20;88044.59;;;7.75
64904;BMP280;51401;48.882;12.598;2023-04-25T02:08:45;87953.94;;;7.74
64904;BMP280;51401;48.882;12.598;2023-04-25T02:11:11;87833.81;;;7.77
64904;BMP280;51401;48.882;12.598;2023-04-25T02:13:36;87688.56;;;7.78
64904;BMP280;51401;48.882;12.598;2023-04-25T02:16:01;87561.25;;;7.77
64904;BMP280;51401;48.882;12.598;2023-04-25T02:18:27;87400.03;;;7.81
64904;BMP280;51401;48.882;12.598;2023-04-25T02:20:52;87255.44;;;7.82
64904;BMP280;51401;48.882;12.598;2023-04-25T02:23:17;87116.66;;;7.84
64904;BMP280;51401;48.882;12.598;2023-04-25T02:25:44;87030.56;;;7.85
64904;BMP280;51401;48.882;12.598;2023-04-25T02:28:09;86955.38;;;7.87
64904;BMP280;51401;48.882;12.598;2023-04-25T02:30:35;86981.75;;;7.87
64904;BMP280;51401;48.882;12.598;2023-04-25T02:33:01;87011.38;;;7.90
64904;BMP280;51401;48.882;12.598;2023-04-25T02:35:26;87076.94;;;7.89
64904;BMP280;51401;48.882;12.598;2023-04-25T02:37:51;87107.16;;;7.91
64904;BMP280;51401;48.882;12.598;2023-04-25T02:40:17;87141.16;;;7.87
64904;BMP280;51401;48.882;12.598;2023-04-25T02:42:42;87159.13;;;7.85
64904;BMP280;51401;48.882;12.598;2023-04-25T02:45:08;87161.28;;;7.95
64904;BMP280;51401;48.882;12.598;2023-04-25T02:47:33;87226.19;;;7.93
64904;BMP280;51401;48.882;12.598;2023-04-25T02:49:58;87273.13;;;7.94
64904;BMP280;51401;48.882;12.598;2023-04-25T02:52:24;87338.00;;;7.92
64904;BMP280;51401;48.882;12.598;2023-04-25T02:54:49;87342.06;;;7.99
64904;BMP280;51401;48.882;12.598;2023-04-25T02:57:15;87424.31;;;7.97
64904;BMP280;51401;48.882;12.598;2023-04-25T02:59:40;87465.53;;;7.99
64904;BMP280;51401;48.882;12.598;2023-04-25T03:02:05;87536.75;;;7.95
64904;BMP280;51401;48.882;12.598;2023-04-25T03:04:30;87583.13;;;7.97
64904;BMP280;51401;48.882;12.598;2023-04-25T03:06:56;87623.53;;;7.94
64904;BMP280;51401;48.882;12.598;2023-04-25T03:09:21;87575.94;;;7.93
64904;BMP280;51401;48.882;12.598;2023-04-25T03:11:47;87538.47;;;7.88
64904;BMP280;51401;48.882;12.598;2023-04-25T03:14:12;87544.94;;;7.89
64904;BMP280;51401;48.882;12.598;2023-04-25T03:16:38;87557.72;;;7.87
64904;BMP280;51401;48.882;12.598;2023-04-25T03:19:04;87534.72;;;7.91
64904;BMP280;51401;48.882;12.598;2023-04-25T03:21:31;87509.00;;;7.91
64904;BMP280;51401;48.882;12.598;2023-04-25T03:23:57;87483.28;;;7.91
64904;BMP280;51401;48.882;12.598;2023-04-25T03:26:22;87530.31;;;7.94
64904;BMP280;51401;48.882;12.598;2023-04-25T03:28:48;87588.25;;;7.97
64904;BMP280;51401;48.882;12.598;2023-04-25T03:31:13;87564.56;;;8.00
64904;BMP280;51401;48.882;12.598;2023-04-25T03:33:38;87727.75;;;7.95
64904;BMP280;51401;48.882;12.598;2023-04-25T03:36:05;87821.78;;;8.00
64904;BMP280;51401;48.882;12.598;2023-04-25T03:38:30;87936.97;;;8.02
64904;BMP280;51401;48.882;12.598;2023-04-25T03:40:55;88032.16;;;8.02
64904;BMP280;51401;48.882;12.598;2023-04-25T03:43:21;88276.00;;;8.03
64904;BMP280;51401;48.882;12.598;2023-04-25T03:45:46;88258.25;;;8.09
64904;BMP280;51401;48.882;12.598;2023-04-25T03:48:11;88205.84;;;8.03
64904;BMP280;51401;48.882;12.598;2023-04-25T03:50:37;88180.72;;;8.01
64904;BMP280;51401;48.882;12.598;2023-04-25T03:53:02;88074.00;;;8.02
64904;BMP280;51401;48.882;12.598;2023-04-25T03:55:27;87957.56;;;8.02
64904;BMP280;51401;48.882;12.598;2023-04-25T03:57:52;87931.84;;;8.02
64904;BMP280;51401;48.882;12.598;2023-04-25T04:00:18;87856.72;;;8.05
64904;BMP280;51401;48.882;12.598;2023-04-25T04:02:43;87787.41;;;8.09
64904;BMP280;51401;48.882;12.598;2023-04-25T04:05:08;87804.16;;;8.10
64904;BMP280;51401;48.882;12.598;2023-04-25T04:07:34;87836.28;;;8.09
64904;BMP280;51401;48.882;12.598;2023-04-25T04:10:05;87940.22;;;8.19
64904;BMP280;51401;48.882;12.598;2023-04-25T04:12:31;88123.50;;;8.18
64904;BMP280;51401;48.882;12.598;2023-04-25T04:14:56;88184.13;;;8.21
64904;BMP280;51401;48.882;12.598;2023-04-25T04:17:21;88182.78;;;8.20
64904;BMP280;51401;48.882;12.598;2023-04-25T04:19:46;88228.63;;;8.23
64904;BMP280;51401;48.882;12.598;2023-04-25T04:22:12;88285.25;;;8.23
64904;BMP280;51401;48.882;12.598;2023-04-25T04:24:37;88353.47;;;8.24
64904;BMP280;51401;48.882;12.598;2023-04-25T04:27:02;88408.56;;;8.33
64904;BMP280;51401;48.882;12.598;2023-04-25T04:29:28;88523.81;;;8.34
64904;BMP280;51401;48.882;12.598;2023-04-25T04:31:53;88548.34;;;8.35
64904;BMP280;51401;48.882;12.598;2023-04-25T04:34:18;88548.44;;;8.37
64904;BMP280;51401;48.882;12.598;2023-04-25T04:36:45;88541.19;;;8.34
64904;BMP280;51401;48.882;12.598;2023-04-25T04:39:12;88435.78;;;8.38
64904;BMP280;51401;48.882;12.598;2023-04-25T04:41:37;88422.09;;;8.33
64904;BMP280;51401;48.882;12.598;2023-04-25T04:44:03;88419.06;;;8.37
64904;BMP280;51401;48.882;12.598;2023-04-25T04:46:28;88472.78;;;8.44
64904;BMP280;51401;48.882;12.598;2023-04-25T04:48:53;88535.44;;;8.48
64904;BMP280;51401;48.882;12.598;2023-04-25T04:51:19;88660.56;;;8.53
64904;BMP280;51401;48.882;12.598;2023-04-25T04:53:45;88695.56;;;8.58
64904;BMP280;51401;48.882;12.598;2023-04-25T04:56:11;88743.38;;;8.61
64904;BMP280;51401;48.882;12.598;2023-04-25T04:58:36;88759.47;;;8.62
64904;BMP280;51401;48.882;12.598;2023-04-25T05:01:01;88730.88;;;8.56
64904;BMP280;51401;48.882;12.598;2023-04-25T05:03:27;88654.66;;;8.64
64904;BMP280;51401;48.882;12.598;2023-04-25T05:05:52;88718.06;;;8.58
64904;BMP280;51401;48.882;12.598;2023-04-25T05:08:17;88661.13;;;8.65
64904;BMP280;51401;48.882;12.598;2023-04-25T05:10:42;88678.31;;;8.74
64904;BMP280;51401;48.882;12.598;2023-04-25T05:13:08;88806.72;;;8.66
64904;BMP280;51401;48.882;12.598;2023-04-25T05:15:33;88826.25;;;8.58
64904;BMP280;51401;48.882;12.598;2023-04-25T05:17:58;88756.91;;;8.48
64904;BMP280;51401;48.882;12.598;2023-04-25T05:20:23;88640.94;;;8.46
64904;BMP280;51401;48.882;12.598;2023-04-25T05:22:49;88496.56;;;8.42
64904;BMP280;51401;48.882;12.598;2023-04-25T05:25:14;88221.31;;;8.33
64904;BMP280;51401;48.882;12.598;2023-04-25T05:27:39;88037.97;;;8.35
64904;BMP280;51401;48.882;12.598;2023-04-25T05:30:05;87983.84;;;8.33
64904;BMP280;51401;48.882;12.598;2023-04-25T05:32:31;87866.31;;;8.39
64904;BMP280;51401;48.882;12.598;2023-04-25T05:34:56;87859.47;;;8.45
64904;BMP280;51401;48.882;12.598;2023-04-25T05:37:21;87856.34;;;8.49
64904;BMP280;51401;48.882;12.598;2023-04-25T05:39:46;87945.53;;;8.41
64904;BMP280;51401;48.882;12.598;2023-04-25T05:42:12;87832.91;;;8.41
64904;BMP280;51401;48.882;12.598;2023-04-25T05:44:37;87700.13;;;8.34
64904;BMP280;51401;48.882;12.598;2023-04-25T05:47:02;87545.78;;;8.15
64904;BMP280;51401;48.882;12.598;2023-04-25T05:49:30;87312.91;;;8.14
64904;BMP280;51401;48.882;12.598;2023-04-25T05:51:55;86965.63;;;8.14
64904;BMP280;51401;48.882;12.598;2023-04-25T05:54:20;86560.94;;;8.00
64904;BMP280;51401;48.882;12.598;2023-04-25T05:56:46;86006.28;;;8.02
64904;BMP280;51401;48.882;12.598;2023-04-25T05:59:11;85339.22;;;8.03
64904;BMP280;51401;48.882;12.598;2023-04-25T06:01:36;84767.53;;;7.92
64904;BMP280;51401;48.882;12.598;2023-04-25T06:04:01;83962.03;;;7.97
64904;BMP280;51401;48.882;12.598;2023-04-25T06:06:27;82794.06;;;8.39
64904;BMP280;51401;48.882;12.598;2023-04-25T06:08:52;81296.78;;;9.03
64904;BMP280;51401;48.882;12.598;2023-04-25T06:11:18;79902.41;;;9.68
64904;BMP280;51401;48.882;12.598;2023-04-25T06:13:43;79614.34;;;9.56
64904;BMP280;51401;48.882;12.598;2023-04-25T06:16:08;79983.81;;;9.25
64904;BMP280;51401;48.882;12.598;2023-04-25T06:18:34;79880.81;;;9.34
64904;BMP280;51401;48.882;12.598;2023-04-25T06:20:59;79416.13;;;9.88
64904;BMP280;51401;48.882;12.598;2023-04-25T06:23:24;80246.03;;;10.27
64904;BMP280;51401;48.882;12.598;2023-04-25T06:25:49;82156.78;;;10.47
64904;BMP280;51401;48.882;12.598;2023-04-25T06:28:15;83984.25;;;9.96
64904;BMP280;51401;48.882;12.598;2023-04-25T06:30:40;85181.69;;;9.89
64904;BMP280;51401;48.882;12.598;2023-04-25T06:33:06;86066.13;;;9.91
64904;BMP280;51401;48.882;12.598;2023-04-25T06:35:31;86714.47;;;10.21
64904;BMP280;51401;48.882;12.598;2023-04-25T06:37:57;87206.81;;;10.59
64904;BMP280;51401;48.882;12.598;2023-04-25T06:40:22;87844.28;;;11.13
64904;BMP280;51401;48.882;12.598;2023-04-25T06:42:47;88889.84;;;11.00
64904;BMP280;51401;48.882;12.598;2023-04-25T06:45:12;89267.44;;;10.74
64904;BMP280;51401;48.882;12.598;2023-04-25T06:47:38;89645.44;;;10.16
64904;BMP280;51401;48.882;12.598;2023-04-25T06:50:04;89743.78;;;10.40
64904;BMP280;51401;48.882;12.598;2023-04-25T06:52:29;89856.75;;;10.49
64904;BMP280;51401;48.882;12.598;2023-04-25T06:54:54;89951.66;;;10.58
64904;BMP280;51401;48.882;12.598;2023-04-25T06:57:20;90026.13;;;10.50
64904;BMP280;51401;48.882;12.598;2023-04-25T06:59:45;89868.38;;;10.71
64904;BMP280;51401;48.882;12.598;2023-04-25T07:02:10;89717.16;;;11.17
64904;BMP280;51401;48.882;12.598;2023-04-25T07:04:36;89826.16;;;11.46
64904;BMP280;51401;48.882;12.598;2023-04-25T07:07:01;90200.44;;;11.07
64904;BMP280;51401;48.882;12.598;2023-04-25T07:09:28;90366.19;;;11.49
64904;BMP280;51401;48.882;12.598;2023-04-25T07:11:53;90646.38;;;11.38
64904;BMP280;51401;48.882;12.598;2023-04-25T07:14:19;91031.25;;;11.59
64904;BMP280;51401;48.882;12.598;2023-04-25T07:16:44;91376.13;;;11.39
64904;BMP280;51401;48.882;12.598;2023-04-25T07:19:09;91334.94;;;11.75
64904;BMP280;51401;48.882;12.598;2023-04-25T07:21:34;91539.69;;;11.99
64904;BMP280;51401;48.882;12.598;2023-04-25T07:24:01;91584.44;;;13.03
64904;BMP280;51401;48.882;12.598;2023-04-25T07:26:27;91634.00;;;13.55
64904;BMP280;51401;48.882;12.598;2023-04-25T07:28:52;92041.44;;;13.62
64904;BMP280;51401;48.882;12.598;2023-04-25T07:31:17;92353.25;;;12.96
64904;BMP280;51401;48.882;12.598;2023-04-25T07:33:44;92507.41;;;13.26
64904;BMP280;51401;48.882;12.598;2023-04-25T07:36:10;92520.16;;;13.16
64904;BMP280;51401;48.882;12.598;2023-04-25T07:38:35;92605.69;;;13.62
64904;BMP280;51401;48.882;12.598;2023-04-25T07:41:01;92755.47;;;13.65
64904;BMP280;51401;48.882;12.598;2023-04-25T07:43:26;92585.34;;;12.98
64904;BMP280;51401;48.882;12.598;2023-04-25T07:45:51;92440.53;;;14.20
64904;BMP280;51401;48.882;12.598;2023-04-25T07:48:17;92734.63;;;13.85
64904;BMP280;51401;48.882;12.598;2023-04-25T07:50:43;92674.59;;;13.48
64904;BMP280;51401;48.882;12.598;2023-04-25T07:53:09;92733.56;;;13.13
64904;BMP280;51401;48.882;12.598;2023-04-25T07:55:34;92869.81;;;13.70
64904;BMP280;51401;48.882;12.598;2023-04-25T07:58:01;93149.63;;;13.40
64904;BMP280;51401;48.882;12.598;2023-04-25T08:00:26;93275.22;;;12.63
64904;BMP280;51401;48.882;12.598;2023-04-25T08:02:52;93141.59;;;12.64
64904;BMP280;51401;48.882;12.598;2023-04-25T08:05:17;93070.91;;;12.21
64904;BMP280;51401;48.882;12.598;2023-04-25T08:07:42;93047.69;;;12.29
64904;BMP280;51401;48.882;12.598;2023-04-25T08:10:09;93110.72;;;12.06
64904;BMP280;51401;48.882;12.598;2023-04-25T08:12:34;93102.03;;;12.21
64904;BMP280;51401;48.882;12.598;2023-04-25T08:14:59;93110.09;;;12.18
64904;BMP280;51401;48.882;12.598;2023-04-25T08:17:24;93017.88;;;12.79
64904;BMP280;51401;48.882;12.598;2023-04-25T08:19:50;93095.56;;;13.08
64904;BMP280;51401;48.882;12.598;2023-04-25T08:22:15;93261.22;;;13.38
64904;BMP280;51401;48.882;12.598;2023-04-25T08:24:41;93387.00;;;14.03
64904;BMP280;51401;48.882;12.598;2023-04-25T08:27:06;93389.94;;;14.38
64904;BMP280;51401;48.882;12.598;2023-04-25T08:29:33;93512.41;;;13.23
64904;BMP280;51401;48.882;12.598;2023-04-25T08:31:58;93349.84;;;13.40
64904;BMP280;51401;48.882;12.598;2023-04-25T08:34:24;93387.88;;;14.62
64904;BMP280;51401;48.882;12.598;2023-04-25T08:36:50;93321.97;;;15.00
64904;BMP280;51401;48.882;12.598;2023-04-25T08:39:15;93651.47;;;14.47
64904;BMP280;51401;48.882;12.598;2023-04-25T08:41:41;93440.59;;;14.68
64904;BMP280;51401;48.882;12.598;2023-04-25T08:44:09;93433.72;;;13.95
64904;BMP280;51401;48.882;12.598;2023-04-25T08:46:37;93474.03;;;13.11
64904;BMP280;51401;48.882;12.598;2023-04-25T08:49:03;93279.44;;;13.02
64904;BMP280;51401;48.882;12.598;2023-04-25T08:51:31;93302.50;;;12.27
64904;BMP280;51401;48.882;12.598;2023-04-25T08:54:08;92986.94;;;12.37
64904;BMP280;51401;48.882;12.598;2023-04-25T08:56:34;93074.31;;;11.51
64904;BMP280;51401;48.882;12.598;2023-04-25T08:59:01;93139.53;;;11.31
64904;BMP280;51401;48.882;12.598;2023-04-25T09:01:26;93136.31;;;11.20
64904;BMP280;51401;48.882;12.598;2023-04-25T09:03:52;93135.41;;;11.47
64904;BMP280;51401;48.882;12.598;2023-04-25T09:06:19;93130.59;;;11.56
64904;BMP280;51401;48.882;12.598;2023-04-25T09:08:44;93035.38;;;11.56
64904;BMP280;51401;48.882;12.598;2023-04-25T09:11:10;92968.66;;;12.11
64904;BMP280;51401;48.882;12.598;2023-04-25T09:13:35;93049.84;;;12.87
64904;BMP280;51401;48.882;12.598;2023-04-25T09:16:01;93132.22;;;13.99
64904;BMP280;51401;48.882;12.598;2023-04-25T09:18:27;93517.13;;;15.21
64904;BMP280;51401;48.882;12.598;2023-04-25T09:20:54;93769.22;;;15.00
64904;BMP280;51401;48.882;12.598;2023-04-25T09:23:21;93897.88;;;15.94
64904;BMP280;51401;48.882;12.598;2023-04-25T09:25:48;94114.94;;;16.45
64904;BMP280;51401;48.882;12.598;2023-04-25T09:28:13;94694.53;;;15.94
64904;BMP280;51401;48.882;12.598;2023-04-25T09:30:39;96232.78;;;16.80
64904;BMP280;51401;48.882;12.598;2023-04-25T09:33:08;96784.22;;;16.74
64904;BMP280;51401;48.882;12.598;2023-04-25T09:35:38;96781.50;;;16.96
64904;BMP280;51401;48.882;12.598;2023-04-25T09:38:08;96811.31;;;16.98
64904;BMP280;51401;48.882;12.598;2023-04-25T09:40:33;96816.25;;;16.96
64904;BMP280;51401;48.882;12.598;2023-04-25T09:42:58;96816.13;;;17.26
64904;BMP280;51401;48.882;12.598;2023-04-25T09:45:24;96835.47;;;17.46
64904;BMP280;51401;48.882;12.598;2023-04-25T09:47:49;96849.63;;;16.57
64904;BMP280;51401;48.882;12.598;2023-04-25T09:50:16;96834.53;;;16.78
64904;BMP280;51401;48.882;12.598;2023-04-25T09:52:42;96845.63;;;16.35
64904;BMP280;51401;48.882;12.598;2023-04-25T09:55:07;96824.72;;;15.08
64904;BMP280;51401;48.882;12.598;2023-04-25T09:57:33;96829.44;;;14.02
64904;BMP280;51401;48.882;12.598;2023-04-25T10:00:00;96812.09;;;14.36
64904;BMP280;51401;48.882;12.598;2023-04-25T10:02:27;96788.53;;;13.19
64904;BMP280;51401;48.882;12.598;2023-04-25T10:04:55;96424.22;;;12.94
64904;BMP280;51401;48.882;12.598;2023-04-25T10:07:26;95907.13;;;12.71
64904;BMP280;51401;48.882;12.598;2023-04-25T10:09:58;95045.88;;;12.60
64904;BMP280;51401;48.882;12.598;2023-04-25T10:12:26;94435.69;;;11.73
64904;BMP280;51401;48.882;12.598;2023-04-25T10:14:52;93604.56;;;11.41
64904;BMP280;51401;48.882;12.598;2023-04-25T10:17:19;93061.53;;;11.11
64904;BMP280;51401;48.882;12.598;2023-04-25T10:19:46;92847.22;;;11.30
64904;BMP280;51401;48.882;12.598;2023-04-25T10:22:20;92807.59;;;11.35
64904;BMP280;51401;48.882;12.598;2023-04-25T10:24:49;93088.31;;;11.43
64904;BMP280;51401;48.882;12.598;2023-04-25T10:27:16;92782.94;;;12.80
64904;BMP280;51401;48.882;12.598;2023-04-25T10:29:41;93130.41;;;13.69
64904;BMP280;51401;48.882;12.598;2023-04-25T10:32:09;93724.81;;;13.62
64904;BMP280;51401;48.882;12.598;2023-04-25T10:37:04;93622.75;;;13.27
64904;BMP280;51401;48.882;12.598;2023-04-25T10:39:32;93692.63;;;13.07
64904;BMP280;51401;48.882;12.598;2023-04-25T10:41:58;93676.47;;;12.85
64904;BMP280;51401;48.882;12.598;2023-04-25T10:47:00;93846.66;;;16.04
64904;BMP280;51401;48.882;12.598;2023-04-25T10:49:44;93933.34;;;17.48
64904;BMP280;51401;48.882;12.598;2023-04-25T10:52:24;94560.16;;;16.29
64904;BMP280;51401;48.882;12.598;2023-04-25T10:54:55;94676.59;;;14.30
64904;BMP280;51401;48.882;12.598;2023-04-25T10:57:41;94488.75;;;14.12
64904;BMP280;51401;48.882;12.598;2023-04-25T11:00:08;94521.41;;;14.02
64904;BMP280;51401;48.882;12.598;2023-04-25T11:05:10;94342.47;;;12.19
64904;BMP280;51401;48.882;12.598;2023-04-25T11:10:09;93534.41;;;11.18
64904;BMP280;51401;48.882;12.598;2023-04-25T11:12:34;92843.38;;;11.18
64904;BMP280;51401;48.882;12.598;2023-04-25T11:15:02;92242.16;;;11.01
64904;BMP280;51401;48.882;12.598;2023-04-25T11:17:28;91748.03;;;11.49
64904;BMP280;51401;48.882;12.598;2023-04-25T11:19:54;91925.91;;;13.72
64904;BMP280;51401;48.882;12.598;2023-04-25T11:22:21;92639.69;;;14.63
64904;BMP280;51401;48.882;12.598;2023-04-25T11:24:46;93350.91;;;14.50
64904;BMP280;51401;48.882;12.598;2023-04-25T11:27:12;93751.28;;;14.19
64904;BMP280;51401;48.882;12.598;2023-04-25T11:29:37;93698.38;;;14.06
64904;BMP280;51401;48.882;12.598;2023-04-25T11:32:03;93741.69;;;14.69
64904;BMP280;51401;48.882;12.598;2023-04-25T11:34:30;93774.38;;;14.88
64904;BMP280;51401;48.882;12.598;2023-04-25T11:36:56;93771.38;;;15.33
64904;BMP280;51401;48.882;12.598;2023-04-25T11:39:21;93797.16;;;15.55
64904;BMP280;51401;48.882;12.598;2023-04-25T11:41:48;93878.00;;;15.73
64904;BMP280;51401;48.882;12.598;2023-04-25T11:44:17;94382.16;;;15.75
64904;BMP280;51401;48.882;12.598;2023-04-25T11:46:43;94552.22;;;16.11
64904;BMP280;51401;48.882;12.598;2023-04-25T11:49:09;94778.84;;;17.57
64904;BMP280;51401;48.882;12.598;2023-04-25T11:51:41;96162.25;;;17.62
64904;BMP280;51401;48.882;12.598;2023-04-25T11:54:08;96572.22;;;17.24
64904;BMP280;51401;48.882;12.598;2023-04-25T11:56:33;96687.88;;;17.31
64904;BMP280;51401;48.882;12.598;2023-04-25T11:59:00;96725.91;;;17.18
64904;BMP280;51401;48.882;12.598;2023-04-25T12:01:38;96670.69;;;18.03
64904;BMP280;51401;48.882;12.598;2023-04-25T12:04:19;96704.81;;;17.13
64904;BMP280;51401;48.882;12.598;2023-04-25T12:06:46;96763.19;;;17.63
64904;BMP280;51401;48.882;12.598;2023-04-25T12:09:14;96727.53;;;16.71
64904;BMP280;51401;48.882;12.598;2023-04-25T12:12:01;96750.22;;;16.83
64904;BMP280;51401;48.882;12.598;2023-04-25T12:14:31;96677.03;;;17.65
64904;BMP280;51401;48.882;12.598;2023-04-25T12:17:00;96700.88;;;16.38
64904;BMP280;51401;48.882;12.598;2023-04-25T12:19:27;96645.09;;;15.45
64904;BMP280;51401;48.882;12.598;2023-04-25T12:21:56;96643.06;;;16.71
64904;BMP280;51401;48.882;12.598;2023-04-25T12:24:23;96697.13;;;15.91
64904;BMP280;51401;48.882;12.598;2023-04-25T12:29:24;96788.25;;;17.73
64904;BMP280;51401;48.882;12.598;2023-04-25T12:31:51;96816.47;;;17.86
64904;BMP280;51401;48.882;12.598;2023-04-25T12:34:21;96834.06;;;16.53
64904;BMP280;51401;48.882;12.598;2023-04-25T12:36:47;96715.97;;;15.77
64904;BMP280;51401;48.882;12.598;2023-04-25T12:39:20;96779.47;;;16.99
64904;BMP280;51401;48.882;12.598;2023-04-25T12:41:47;96808.00;;;18.32
64904;BMP280;51401;48.882;12.598;2023-04-25T12:44:13;96905.34;;;18.75
64904;BMP280;51401;48.882;12.598;2023-04-25T12:46:39;96976.41;;;18.13
64904;BMP280;51401;48.882;12.598;2023-04-25T12:49:06;96898.25;;;18.90
64904;BMP280;51401;48.882;12.598;2023-04-25T12:51:33;96942.59;;;18.64
64904;BMP280;51401;48.882;12.598;2023-04-25T12:54:02;96922.34;;;17.09
64904;BMP280;51401;48.882;12.598;2023-04-25T12:56:29;96936.03;;;16.14
64904;BMP280;51401;48.882;12.598;2023-04-25T12:58:55;96945.81;;;16.74
64904;BMP280;51401;48.882;12.598;2023-04-25T13:01:21;96969.72;;;17.85
64904;BMP280;51401;48.882;12.598;2023-04-25T13:03:47;96991.00;;;19.04
64904;BMP280;51401;48.882;12.598;2023-04-25T13:06:13;96969.00;;;18.61
64904;BMP280;51401;48.882;12.598;2023-04-25T13:08:38;96990.47;;;16.79
64904;BMP280;51401;48.882;12.598;2023-04-25T13:11:05;96964.13;;;16.74
64904;BMP280;51401;48.882;12.598;2023-04-25T13:13:31;96945.22;;;17.26
64904;BMP280;51401;48.882;12.598;2023-04-25T13:15:57;96954.25;;;15.63
64904;BMP280;51401;48.882;12.598;2023-04-25T13:18:22;96920.34;;;15.72
64904;BMP280;51401;48.882;12.598;2023-04-25T13:20:54;96898.84;;;16.88
64904;BMP280;51401;48.882;12.598;2023-04-25T13:23:20;96927.34;;;17.60
64904;BMP280;51401;48.882;12.598;2023-04-25T13:25:46;96965.38;;;18.00
64904;BMP280;51401;48.882;12.598;2023-04-25T13:28:12;96985.88;;;18.78
64904;BMP280;51401;48.882;12.598;2023-04-25T13:30:38;96991.16;;;17.93
64904;BMP280;51401;48.882;12.598;2023-04-25T13:33:03;96961.63;;;16.19
64904;BMP280;51401;48.882;12.598;2023-04-25T13:35:30;96957.94;;;15.75
64904;BMP280;51401;48.882;12.598;2023-04-25T13:37:56;96943.75;;;15.05
64904;BMP280;51401;48.882;12.598;2023-04-25T13:40:21;96916.50;;;15.06
64904;BMP280;51401;48.882;12.598;2023-04-25T13:42:47;96840.44;;;14.59
64904;BMP280;51401;48.882;12.598;2023-04-25T13:45:12;96862.59;;;14.42
64904;BMP280;51401;48.882;12.598;2023-04-25T13:47:38;96866.63;;;14.55
64904;BMP280;51401;48.882;12.598;2023-04-25T13:50:04;96875.81;;;14.72
64904;BMP280;51401;48.882;12.598;2023-04-25T13:52:33;96916.81;;;13.79
64904;BMP280;51401;48.882;12.598;2023-04-25T13:54:59;96893.88;;;13.74
64904;BMP280;51401;48.882;12.598;2023-04-25T13:57:24;96882.44;;;13.84
64904;BMP280;51401;48.882;12.598;2023-04-25T13:59:50;96884.03;;;13.93
64904;BMP280;51401;48.882;12.598;2023-04-25T14:02:16;96910.50;;;13.92
64904;BMP280;51401;48.882;12.598;2023-04-25T14:04:41;96906.25;;;14.26
64904;BMP280;51401;48.882;12.598;2023-04-25T14:07:07;96908.34;;;14.55
64904;BMP280;51401;48.882;12.598;2023-04-25T14:09:33;96920.59;;;14.58